• Join FlightAware (Why Join?)
  • Login
  • US Flag 
09:19AM EDT


 

Airport Tracker/Info


-or-


 

Live Flight TrackerFlight Track Log ✈ DAL3903 ✈ 08-May-2013 ✈ KDTW - KMDT

Flight Track Log - Related Links

Times and Time Zones

All times are in EDT time to prevent confusion due to time zone crossing. See the DAL3903 flight status page for this flight to view local times or setup timezone preferences in your user account.

Time Position Orientation Groundspeed Altitude Reporting Facility
EDT Latitude Longitude Course Direction KTS MPH feet Rate Location/Type
09:04AM 42.2292 -83.3342 90° East 151 174 1,200  Level Cleveland Center
09:05AM 42.2953 -83.2753 33° Northeast 206 237 4,500 2,220 Climbing Cleveland Center
09:06AM 42.3467 -83.2156 41° Northeast 261 300 6,900 2,520 Climbing Cleveland Center
09:07AM 42.2167 -82.9501 90° East  Level FlightAware Approximate
09:07AM 42.3400 -83.1422 97° East 269 310 9,100  Level Cleveland Center
09:08AM 42.2167 -82.8155 90° East  Level FlightAware Approximate
09:08AM 42.3214 -83.0375 103° East 293 337 11,200  Level Cleveland Center
09:09AM 42.2167 -82.6810 90° East  Level FlightAware Approximate
09:09AM 42.3011 -82.9133 102° East 313 360 13,000  Level Cleveland Center
09:10AM 42.2786 -82.7833 103° East 329 379 15,200 2,040 Climbing Cleveland Center
09:11AM 42.2561 -82.6508 103° East 347 399 17,100 1,740 Climbing Cleveland Center
09:12AM 42.2333 -82.5181 103° East 353 406 18,700 1,500 Climbing Cleveland Center
09:13AM 42.2189 -82.3803 98° East 358 412 20,200 1,320 Climbing Cleveland Center
09:14AM 42.2086 -82.2369 95° East 368 423 21,400 1,080 Climbing Cleveland Center
09:15AM 42.1981 -82.0911 96° East 384 442 22,400 900 Climbing Cleveland Center
09:16AM 42.1872 -81.9592 96° East 391 450 23,200 900 Climbing Cleveland Center
09:17AM 42.1114 -81.8456 132° Southeast 391 450 24,200 1,020 Climbing Cleveland Center
09:18AM 42.0208 -81.7431 140° Southeast 397 457 25,300 1,020 Climbing Cleveland Center
09:19AM 41.9342 -81.6439 140° Southeast 415 478 26,300 960 Climbing Cleveland Center
09:20AM 41.8475 -81.5447 140° Southeast 421 484 27,300 960 Climbing Cleveland Center
09:21AM 41.7525 -81.4319 138° Southeast 421 484 28,300 1,020 Climbing Cleveland Center
09:22AM 41.6783 -81.3256 133° Southeast 414 476 29,400 1,020 Climbing Cleveland Center
09:23AM 41.6247 -81.1969 119° Southeast 393 452 30,400 780 Climbing Cleveland Center
09:24AM 41.5711 -81.0717 120° Southeast 388 447 31,000 300 Climbing Cleveland Center
09:25AM 41.5175 -80.9408 119° Southeast 393 452 31,000  Level Cleveland Center
09:26AM 41.4617 -80.8131 120° Southeast 398 458 31,000 -480 Level Cleveland Center
09:27AM 41.4033 -80.6800 120° Southeast 403 464 30,100 -900 Descending Cleveland Center
09:28AM 41.3533 -80.5639 120° Southeast 403 464 29,300 -960 Descending Cleveland Center
09:29AM 41.2992 -80.4339 119° Southeast 403 464 28,200 -1,080 Descending Cleveland Center
09:30AM 41.2383 -80.2906 119° Southeast 398 458 27,200 -1,020 Descending Cleveland Center
09:31AM 41.1797 -80.1611 121° Southeast 398 458 26,200 -1,080 Descending Cleveland Center
09:32AM 41.1247 -80.0344 120° Southeast 398 458 25,100 -1,080 Descending Cleveland Center
09:33AM 41.0700 -79.9056 119° Southeast 398 458 24,100 -600 Descending Cleveland Center
09:34AM 41.0150 -79.7850 121° Southeast 398 458 24,000 -180 Descending Cleveland Center
09:35AM 40.9600 -79.6647 121° Southeast 393 452 23,800 -540 Descending Cleveland Center
09:36AM 40.9067 -79.5392 119° Southeast 388 447 23,000 -420 Descending Cleveland Center
09:37AM 40.8492 -79.4139 121° Southeast 388 447 23,000  Level Cleveland Center
09:38AM 40.7936 -79.2914 121° Southeast 388 447 23,000  Level Cleveland Center
09:39AM 40.7381 -79.1664 120° Southeast 393 452 23,000  Level Cleveland Center
09:40AM 40.6844 -79.0469 121° Southeast 393 452 23,000  Level Cleveland Center
09:41AM 40.6328 -78.9414 123° Southeast 382 440 23,000  Level Cleveland Center
09:42AM 40.5789 -78.8225 121° Southeast 382 440 23,000  Level Cleveland Center
09:43AM 40.5375 -78.7008 114° Southeast 377 434 23,000  Level Cleveland Center
09:44AM 40.5183 -78.5647 100° East 365 420 23,000 -1,320 Level Cleveland Center
09:46AM 40.4881 -78.3364 100° East 371 427 19,500 -1,920 Descending New York Center
09:47AM 40.4694 -78.2061 101° East 366 421 17,800 -1,740 Descending New York Center
09:48AM 40.4503 -78.0756 101° East 360 414 16,100 -1,740 Descending New York Center
09:49AM 40.4344 -77.9594 100° East 350 403 14,400 -1,740 Descending New York Center
09:50AM 40.4167 -77.8403 101° East 339 390 12,700 -1,680 Descending New York Center
09:51AM 40.4006 -77.7242 100° East 328 377 11,100 -1,560 Descending New York Center
09:52AM 40.3836 -77.6217 102° East 287 330 9,600 -1,260 Descending New York Center
09:53AM 40.3703 -77.5275 100° East 260 299 8,600 -1,200 Descending New York Center
09:54AM 40.3547 -77.4361 103° East 254 292 7,200 -1,320 Descending New York Center
09:55AM 40.3411 -77.3422 101° East 261 300 6,000 -1,320 Descending New York Center
09:56AM 40.3275 -77.2483 101° East 261 300 4,600 -1,200 Descending New York Center
09:57AM 40.3139 -77.1572 101° East 261 300 3,600 -840 Descending New York Center
09:58AM 40.2978 -77.0686 103° East 253 291 3,000 -300 Descending New York Center
09:59AM 40.2828 -76.9992 106° East 222 255 3,000  Level New York Center